createdAt,value
2023-04-27T00:01:14.875Z,30.20
2023-04-27T00:03:43.029Z,23.45
2023-04-27T00:06:10.666Z,21.95
2023-04-27T00:08:38.019Z,23.27
2023-04-27T00:11:05.993Z,21.90
2023-04-27T00:13:33.161Z,24.00
2023-04-27T00:16:03.509Z,21.55
2023-04-27T00:18:31.268Z,29.30
2023-04-27T00:20:58.970Z,23.60
2023-04-27T00:23:27.388Z,24.17
2023-04-27T00:25:54.640Z,24.05
2023-04-27T00:28:22.012Z,24.50
2023-04-27T00:30:49.386Z,21.65
2023-04-27T00:33:17.212Z,19.52
2023-04-27T00:35:44.467Z,19.20
2023-04-27T00:38:12.256Z,42.08
2023-04-27T00:40:40.461Z,33.53
2023-04-27T00:43:09.211Z,27.50
2023-04-27T00:45:45.713Z,33.10
2023-04-27T00:48:13.790Z,31.45
2023-04-27T00:50:41.419Z,18.90
2023-04-27T00:53:08.826Z,22.15
2023-04-27T00:55:37.645Z,29.30
2023-04-27T00:58:04.901Z,21.20
2023-04-27T01:00:32.427Z,19.55
2023-04-27T01:03:01.930Z,29.35
2023-04-27T01:05:31.989Z,26.20
2023-04-27T01:08:00.405Z,24.40
2023-04-27T01:10:28.472Z,21.30
2023-04-27T01:12:56.219Z,21.92
2023-04-27T01:15:23.729Z,20.83
2023-04-27T01:18:01.410Z,22.63
2023-04-27T01:20:33.020Z,25.20
2023-04-27T01:23:00.366Z,21.98
2023-04-27T01:25:27.733Z,20.80
2023-04-27T01:27:55.047Z,24.35
2023-04-27T01:30:22.684Z,23.17
2023-04-27T01:32:50.483Z,23.30
2023-04-27T01:35:20.013Z,25.55
2023-04-27T01:37:47.610Z,23.38
2023-04-27T01:40:15.417Z,25.00
2023-04-27T01:42:42.777Z,26.02
2023-04-27T01:45:11.105Z,22.83
2023-04-27T01:47:38.516Z,24.58
2023-04-27T01:50:07.529Z,25.77
2023-04-27T01:52:35.750Z,33.20
2023-04-27T01:55:04.248Z,23.13
2023-04-27T01:57:31.892Z,19.83
2023-04-27T01:59:59.353Z,23.30
2023-04-27T02:02:26.828Z,27.45
2023-04-27T02:04:54.428Z,35.35
2023-04-27T02:07:21.988Z,26.08
2023-04-27T02:09:50.639Z,21.58
2023-04-27T02:12:17.817Z,26.40
2023-04-27T02:14:45.147Z,29.88
2023-04-27T02:17:12.522Z,25.40
2023-04-27T02:19:40.122Z,25.40
2023-04-27T02:22:07.484Z,18.30
2023-04-27T02:24:36.509Z,28.05
2023-04-27T02:27:03.860Z,23.27
2023-04-27T02:29:31.969Z,21.10
2023-04-27T02:31:59.815Z,26.27
2023-04-27T02:34:27.570Z,30.55
2023-04-27T02:36:54.921Z,21.63
2023-04-27T02:39:22.165Z,26.83
2023-04-27T02:41:49.547Z,19.92
2023-04-27T02:44:17.438Z,31.50
2023-04-27T02:46:44.705Z,34.95
2023-04-27T02:49:12.115Z,24.13
2023-04-27T02:51:39.433Z,26.75
2023-04-27T02:54:06.758Z,29.52
2023-04-27T02:56:34.153Z,23.38
2023-04-27T02:59:01.530Z,30.75
2023-04-27T03:01:28.907Z,22.65
2023-04-27T03:03:56.577Z,23.75
2023-04-27T03:06:24.116Z,34.78
2023-04-27T03:08:51.440Z,25.05
2023-04-27T03:11:18.758Z,30.15
2023-04-27T03:13:46.221Z,30.77
2023-04-27T03:16:14.023Z,30.67
2023-04-27T03:18:42.429Z,32.55
2023-04-27T03:21:10.990Z,36.85
2023-04-27T03:23:38.561Z,25.92
2023-04-27T03:26:13.557Z,26.15
2023-04-27T03:28:42.230Z,28.92
2023-04-27T03:31:11.462Z,33.65
2023-04-27T03:33:39.598Z,31.88
2023-04-27T03:36:08.598Z,27.30
2023-04-27T03:38:36.200Z,30.33
2023-04-27T03:41:04.047Z,30.48
2023-04-27T03:43:31.396Z,38.00
2023-04-27T03:45:58.835Z,33.15
2023-04-27T03:48:27.207Z,28.05
2023-04-27T03:50:56.074Z,37.08
2023-04-27T03:53:23.528Z,32.42
2023-04-27T03:55:51.821Z,27.45
2023-04-27T03:58:19.750Z,32.92
2023-04-27T04:01:05.272Z,42.88
2023-04-27T04:03:32.735Z,39.83
2023-04-27T04:06:00.234Z,32.72
2023-04-27T04:08:27.450Z,33.55
2023-04-27T04:10:56.208Z,37.45
2023-04-27T04:13:24.140Z,37.70
2023-04-27T04:16:03.021Z,41.75
2023-04-27T04:18:31.080Z,45.80
2023-04-27T04:20:58.385Z,40.42
2023-04-27T04:23:26.927Z,39.65
2023-04-27T04:25:58.538Z,44.20
2023-04-27T04:28:30.886Z,51.70
2023-04-27T04:30:59.686Z,51.13
2023-04-27T04:33:27.384Z,39.85
2023-04-27T04:35:56.387Z,46.15
2023-04-27T04:38:23.803Z,49.55
2023-04-27T04:40:52.888Z,46.10
2023-04-27T04:43:20.175Z,41.47
2023-04-27T04:45:48.171Z,42.67
2023-04-27T04:48:16.504Z,45.03
2023-04-27T04:50:46.106Z,50.83
2023-04-27T04:53:14.319Z,43.55
2023-04-27T04:55:42.554Z,48.63
2023-04-27T04:58:11.014Z,45.83
2023-04-27T05:00:38.467Z,56.17
2023-04-27T05:03:07.929Z,51.83
2023-04-27T05:05:35.536Z,49.30
2023-04-27T05:08:02.896Z,48.83
2023-04-27T05:10:30.163Z,51.85
2023-04-27T05:12:57.872Z,54.95
2023-04-27T05:15:25.260Z,46.50
2023-04-27T05:17:54.564Z,58.72
2023-04-27T05:20:22.494Z,52.22
2023-04-27T05:22:50.091Z,50.95
2023-04-27T05:25:17.503Z,63.22
2023-04-27T05:27:44.776Z,46.80
2023-04-27T05:30:12.952Z,51.47
2023-04-27T05:32:40.706Z,47.10
2023-04-27T05:35:08.306Z,52.45
2023-04-27T05:37:35.653Z,53.00
2023-04-27T05:40:05.908Z,48.70
2023-04-27T05:42:33.364Z,66.50
2023-04-27T05:45:00.882Z,52.08
2023-04-27T05:47:28.149Z,60.72
2023-04-27T05:49:55.511Z,78.32
2023-04-27T05:52:29.359Z,66.22
2023-04-27T05:54:58.389Z,56.70
2023-04-27T05:57:27.056Z,59.45
2023-04-27T05:59:54.468Z,65.65
2023-04-27T06:02:23.084Z,58.05
2023-04-27T06:04:50.705Z,59.47
2023-04-27T06:07:18.095Z,70.28
2023-04-27T06:09:46.321Z,63.08
2023-04-27T06:12:13.668Z,64.07
2023-04-27T06:14:41.233Z,57.53
2023-04-27T06:17:08.616Z,52.47
2023-04-27T06:19:36.873Z,66.35
2023-04-27T06:22:04.197Z,60.33
2023-04-27T06:24:31.548Z,57.45
2023-04-27T06:26:58.816Z,77.32
2023-04-27T06:29:26.913Z,65.47
2023-04-27T06:31:54.638Z,65.97
2023-04-27T06:34:21.855Z,65.85
2023-04-27T06:36:49.184Z,70.78
2023-04-27T06:39:16.686Z,60.45
2023-04-27T06:41:44.205Z,64.55
2023-04-27T06:44:19.355Z,59.90
2023-04-27T06:46:46.913Z,59.92
2023-04-27T06:49:14.456Z,65.53
2023-04-27T06:51:42.076Z,68.10
2023-04-27T06:54:09.841Z,60.35
2023-04-27T06:56:37.138Z,63.80
2023-04-27T06:59:04.728Z,70.95
2023-04-27T07:01:32.463Z,55.85
2023-04-27T07:04:00.061Z,54.50
2023-04-27T07:06:28.715Z,57.08
2023-04-27T07:08:56.114Z,54.63
2023-04-27T07:11:23.729Z,52.58
2023-04-27T07:13:51.356Z,60.40
2023-04-27T07:16:19.579Z,54.60
2023-04-27T07:18:47.123Z,45.55
2023-04-27T07:21:15.429Z,47.90
2023-04-27T07:23:42.870Z,40.47
2023-04-27T07:26:10.468Z,45.40
2023-04-27T07:28:39.135Z,46.10
2023-04-27T07:31:06.815Z,41.67
2023-04-27T07:33:35.357Z,45.58
2023-04-27T07:36:05.427Z,42.03
2023-04-27T07:38:32.814Z,42.22
2023-04-27T07:41:04.543Z,46.58
2023-04-27T07:43:32.452Z,44.88
2023-04-27T07:45:59.844Z,39.70
2023-04-27T07:48:28.778Z,35.13
2023-04-27T07:50:56.294Z,33.03
2023-04-27T07:53:24.001Z,45.85
2023-04-27T07:55:51.575Z,35.65
2023-04-27T07:58:19.980Z,30.15
2023-04-27T08:00:47.654Z,35.22
2023-04-27T08:03:15.261Z,31.50
2023-04-27T08:05:43.167Z,39.05
2023-04-27T08:08:11.335Z,37.75
2023-04-27T08:10:39.556Z,47.75
2023-04-27T08:13:10.033Z,37.05
2023-04-27T08:15:37.633Z,31.58
2023-04-27T08:18:05.142Z,38.10
2023-04-27T08:20:32.471Z,43.65
2023-04-27T08:23:00.051Z,34.10
2023-04-27T08:25:27.353Z,33.90
2023-04-27T08:27:54.725Z,38.28
2023-04-27T08:30:22.220Z,35.47
2023-04-27T08:32:49.915Z,33.80
2023-04-27T08:35:17.695Z,33.15
2023-04-27T08:37:45.012Z,35.13
2023-04-27T08:40:13.242Z,33.90
2023-04-27T08:42:53.400Z,31.15
2023-04-27T08:45:20.867Z,31.95
2023-04-27T08:47:48.293Z,28.38
2023-04-27T08:50:15.778Z,35.42
2023-04-27T08:52:47.171Z,35.10
2023-04-27T08:55:16.706Z,33.30
2023-04-27T08:57:54.965Z,22.95
2023-04-27T09:00:23.702Z,24.15
2023-04-27T09:02:51.563Z,31.00
2023-04-27T09:05:21.893Z,23.65
2023-04-27T09:07:58.427Z,23.95
2023-04-27T09:10:26.345Z,29.50
2023-04-27T09:13:01.200Z,23.45
2023-04-27T09:15:29.303Z,25.40
2023-04-27T09:17:57.720Z,23.05
2023-04-27T09:20:27.215Z,35.35
2023-04-27T09:22:56.164Z,33.20
2023-04-27T09:25:31.901Z,26.33
2023-04-27T09:28:00.971Z,27.00
2023-04-27T09:30:29.698Z,22.23
2023-04-27T09:32:59.330Z,21.20
2023-04-27T09:35:30.276Z,28.48
2023-04-27T09:37:59.075Z,24.85
2023-04-27T09:40:31.243Z,51.22
2023-04-27T09:43:01.882Z,23.70
2023-04-27T09:45:30.707Z,21.80
2023-04-27T09:47:58.852Z,25.17
2023-04-27T09:50:26.658Z,21.48
2023-04-27T09:52:54.376Z,23.60
2023-04-27T09:55:26.120Z,20.20
2023-04-27T09:57:57.183Z,31.08
2023-04-27T10:00:29.357Z,21.27
2023-04-27T10:03:04.835Z,21.95
2023-04-27T10:05:51.515Z,19.38
2023-04-27T10:08:20.000Z,22.45
2023-04-27T10:10:49.118Z,27.77
2023-04-27T10:13:26.398Z,21.90
2023-04-27T10:15:53.904Z,23.45
2023-04-27T10:18:31.339Z,20.95
2023-04-27T10:21:10.460Z,23.17
2023-04-27T10:23:50.720Z,22.70
2023-04-27T10:26:25.528Z,25.63
2023-04-27T10:29:07.492Z,25.75
2023-04-27T10:31:35.807Z,23.20
2023-04-27T10:34:11.312Z,27.58
2023-04-27T10:36:40.878Z,18.70
2023-04-27T10:39:39.708Z,21.23
2023-04-27T10:42:13.861Z,20.63
2023-04-27T10:44:41.245Z,21.13
2023-04-27T10:47:16.724Z,21.08
2023-04-27T10:49:44.101Z,26.38
2023-04-27T10:52:11.656Z,20.65
2023-04-27T10:54:39.782Z,19.90
2023-04-27T10:57:10.974Z,20.13
2023-04-27T10:59:52.807Z,17.98
2023-04-27T11:02:27.890Z,19.42
2023-04-27T11:04:56.674Z,18.63
2023-04-27T11:07:26.203Z,24.85
2023-04-27T11:09:54.058Z,14.30
2023-04-27T11:12:22.074Z,27.65
2023-04-27T11:14:49.408Z,17.08
2023-04-27T11:17:16.809Z,16.42
2023-04-27T11:19:47.911Z,19.92
2023-04-27T11:22:19.149Z,26.20
2023-04-27T11:24:49.352Z,25.20
2023-04-27T11:27:17.982Z,18.35
2023-04-27T11:29:45.636Z,23.02
2023-04-27T11:32:23.406Z,16.70
2023-04-27T11:34:53.569Z,13.55
2023-04-27T11:37:26.485Z,15.85
2023-04-27T11:39:55.483Z,18.23
2023-04-27T11:42:25.073Z,13.43
2023-04-27T11:45:02.438Z,11.35
2023-04-27T11:47:36.303Z,17.88
2023-04-27T11:50:08.309Z,38.30
2023-04-27T11:52:39.083Z,18.98
2023-04-27T11:55:09.122Z,12.45
2023-04-27T11:57:36.858Z,19.27
2023-04-27T12:00:14.278Z,14.18
2023-04-27T12:02:43.376Z,13.93
2023-04-27T12:05:13.528Z,12.07
2023-04-27T12:07:41.588Z,11.75
2023-04-27T12:10:09.525Z,14.32
2023-04-27T12:12:36.877Z,18.10
2023-04-27T12:15:04.918Z,14.57
2023-04-27T12:17:33.322Z,11.15
2023-04-27T12:20:00.634Z,21.17
2023-04-27T12:22:28.857Z,14.50
2023-04-27T12:24:57.644Z,12.05
2023-04-27T12:27:26.458Z,18.02
2023-04-27T12:29:54.581Z,13.18
2023-04-27T12:32:22.283Z,11.18
2023-04-27T12:34:49.564Z,14.48
2023-04-27T12:37:17.132Z,16.38
2023-04-27T12:39:45.615Z,15.43
2023-04-27T12:42:13.147Z,18.83
2023-04-27T12:44:41.375Z,19.45
2023-04-27T12:47:09.299Z,20.38
2023-04-27T12:49:36.783Z,20.25
2023-04-27T12:52:04.346Z,16.45
2023-04-27T12:54:31.850Z,12.73
2023-04-27T12:57:02.910Z,16.85
2023-04-27T12:59:30.222Z,15.45
2023-04-27T13:01:57.553Z,18.60
2023-04-27T13:04:25.148Z,17.48
2023-04-27T13:06:52.827Z,13.88
2023-04-27T13:09:20.418Z,10.73
2023-04-27T13:11:47.811Z,13.13
2023-04-27T13:14:15.339Z,23.63
2023-04-27T13:16:43.081Z,18.83
2023-04-27T13:19:10.496Z,17.75
2023-04-27T13:21:38.367Z,20.08
2023-04-27T13:24:06.456Z,14.98
2023-04-27T13:26:34.193Z,16.50
2023-04-27T13:29:04.675Z,15.00
2023-04-27T13:31:33.311Z,24.77
2023-04-27T13:34:01.282Z,26.80
2023-04-27T13:36:28.785Z,18.90
2023-04-27T13:38:56.886Z,21.40
2023-04-27T13:41:24.170Z,16.48
2023-04-27T13:43:51.481Z,15.65
2023-04-27T13:46:19.091Z,16.08
2023-04-27T13:48:46.430Z,15.23
2023-04-27T13:51:13.761Z,18.15
2023-04-27T13:53:41.339Z,21.17
2023-04-27T13:56:08.680Z,15.23
2023-04-27T13:58:37.044Z,13.38
2023-04-27T14:01:04.688Z,15.38
2023-04-27T14:03:33.778Z,18.88
2023-04-27T14:06:01.821Z,21.33
2023-04-27T14:08:29.170Z,16.45
2023-04-27T14:10:57.134Z,16.13
2023-04-27T14:13:24.531Z,16.25
2023-04-27T14:15:51.892Z,16.48
2023-04-27T14:18:19.423Z,17.30
2023-04-27T14:20:46.889Z,22.48
2023-04-27T14:23:14.563Z,25.73
2023-04-27T14:25:42.032Z,20.83
2023-04-27T14:28:10.762Z,29.55
2023-04-27T14:30:39.454Z,27.25
2023-04-27T14:33:06.877Z,28.42
2023-04-27T14:35:34.984Z,20.13
2023-04-27T14:38:02.696Z,21.30
2023-04-27T14:40:33.437Z,25.02
2023-04-27T14:43:00.857Z,23.23
2023-04-27T14:45:36.748Z,26.40
2023-04-27T14:48:07.774Z,26.38
2023-04-27T14:50:35.991Z,20.60
2023-04-27T14:53:03.463Z,24.40
2023-04-27T14:55:31.541Z,32.03
2023-04-27T14:57:58.921Z,26.77
2023-04-27T15:00:26.287Z,22.10
2023-04-27T15:02:55.251Z,23.52
2023-04-27T15:05:22.828Z,18.75
2023-04-27T15:07:50.290Z,15.98
2023-04-27T15:10:17.750Z,19.05
2023-04-27T15:12:45.925Z,21.13
2023-04-27T15:15:13.521Z,28.50
2023-04-27T15:17:41.710Z,22.40
2023-04-27T15:20:10.775Z,20.15
2023-04-27T15:22:38.133Z,19.45
2023-04-27T15:25:05.811Z,30.65
2023-04-27T15:27:33.755Z,25.80
2023-04-27T15:30:03.854Z,25.38
2023-04-27T15:32:31.718Z,23.88
2023-04-27T15:34:59.461Z,27.17
2023-04-27T15:37:28.189Z,28.45
2023-04-27T15:39:56.459Z,19.17
2023-04-27T15:42:24.201Z,26.40
2023-04-27T15:44:52.124Z,21.15
2023-04-27T15:47:19.488Z,18.92
2023-04-27T15:49:57.000Z,28.60
2023-04-27T15:52:27.176Z,30.98
2023-04-27T15:54:55.201Z,24.67
2023-04-27T15:57:22.780Z,25.17
2023-04-27T15:59:50.224Z,32.65
2023-04-27T16:02:18.921Z,20.38
2023-04-27T16:04:48.144Z,27.02
2023-04-27T16:07:15.649Z,35.08
2023-04-27T16:09:43.187Z,28.10
2023-04-27T16:12:10.800Z,29.98
2023-04-27T16:14:38.518Z,23.45
2023-04-27T16:17:06.744Z,21.95
2023-04-27T16:19:34.194Z,25.70
2023-04-27T16:22:01.673Z,29.02
2023-04-27T16:24:30.468Z,39.75
2023-04-27T16:26:58.547Z,23.75
2023-04-27T16:29:26.071Z,30.95
2023-04-27T16:31:53.661Z,29.85
2023-04-27T16:34:21.090Z,35.45
2023-04-27T16:36:49.798Z,43.70
2023-04-27T16:39:19.441Z,54.90
2023-04-27T16:41:47.956Z,53.50
2023-04-27T16:44:15.775Z,54.65
2023-04-27T16:46:43.402Z,69.15
2023-04-27T16:49:10.870Z,56.22
2023-04-27T16:51:38.204Z,62.78
2023-04-27T16:54:05.984Z,62.03
2023-04-27T16:56:35.346Z,51.55
2023-04-27T16:59:05.090Z,47.38
2023-04-27T17:01:32.612Z,53.78
2023-04-27T17:04:03.622Z,66.07
2023-04-27T17:06:31.194Z,57.83
2023-04-27T17:08:58.851Z,50.70
2023-04-27T17:11:26.526Z,53.28
2023-04-27T17:13:54.167Z,63.53
2023-04-27T17:16:21.888Z,69.78
2023-04-27T17:18:49.541Z,56.08
2023-04-27T17:21:19.291Z,48.03
2023-04-27T17:23:46.690Z,66.20
2023-04-27T17:26:16.009Z,50.20
2023-04-27T17:28:43.494Z,52.72
2023-04-27T17:31:10.951Z,54.60
2023-04-27T17:33:39.278Z,52.25
2023-04-27T17:36:07.524Z,62.88
2023-04-27T17:38:37.124Z,57.88
2023-04-27T17:41:04.719Z,48.95
2023-04-27T17:43:32.386Z,53.60
2023-04-27T17:45:59.879Z,44.63
2023-04-27T17:48:27.253Z,48.78
2023-04-27T17:50:54.770Z,51.30
2023-04-27T17:53:22.198Z,43.30
2023-04-27T17:55:49.698Z,47.03
2023-04-27T17:58:17.202Z,49.38
2023-04-27T18:00:44.960Z,52.67
2023-04-27T18:03:12.606Z,51.83
2023-04-27T18:05:40.053Z,51.78
2023-04-27T18:08:07.669Z,46.22
2023-04-27T18:10:35.007Z,46.88
2023-04-27T18:13:02.461Z,46.80
2023-04-27T18:15:30.035Z,45.28
2023-04-27T18:17:58.105Z,52.20
2023-04-27T18:20:27.331Z,49.40
2023-04-27T18:22:55.770Z,44.08
2023-04-27T18:25:24.311Z,47.80
2023-04-27T18:27:55.541Z,47.15
2023-04-27T18:30:23.366Z,42.58
2023-04-27T18:32:52.235Z,52.35
2023-04-27T18:35:19.764Z,48.22
2023-04-27T18:37:49.085Z,46.95
2023-04-27T18:40:19.026Z,49.25
2023-04-27T18:42:46.794Z,45.72
2023-04-27T18:45:14.320Z,41.80
2023-04-27T18:47:41.792Z,38.40
2023-04-27T18:50:10.027Z,47.13
2023-04-27T18:52:37.451Z,43.35
2023-04-27T18:55:06.419Z,45.83
2023-04-27T18:57:33.760Z,44.65
2023-04-27T19:00:02.014Z,43.83
2023-04-27T19:02:29.593Z,43.22
2023-04-27T19:05:11.300Z,43.60
2023-04-27T19:07:40.292Z,43.03
2023-04-27T19:10:08.293Z,46.75
2023-04-27T19:12:35.928Z,44.03
2023-04-27T19:15:03.952Z,51.83
2023-04-27T19:17:31.396Z,45.17
2023-04-27T19:19:58.979Z,43.75
2023-04-27T19:22:28.356Z,51.90
2023-04-27T19:24:56.116Z,43.78
2023-04-27T19:27:23.534Z,42.17
2023-04-27T19:29:53.165Z,44.20
2023-04-27T19:32:21.814Z,39.67
2023-04-27T19:34:49.401Z,44.75
2023-04-27T19:37:16.923Z,45.55
2023-04-27T19:39:44.319Z,50.58
2023-04-27T19:42:11.664Z,44.63
2023-04-27T19:44:39.123Z,53.20
2023-04-27T19:47:06.755Z,43.55
2023-04-27T19:49:34.288Z,40.50
2023-04-27T19:52:01.698Z,46.03
2023-04-27T19:54:29.237Z,52.90
2023-04-27T19:56:56.852Z,39.53
2023-04-27T19:59:24.278Z,54.67
2023-04-27T20:01:51.990Z,48.67
2023-04-27T20:04:20.776Z,46.75
2023-04-27T20:06:50.135Z,53.22
2023-04-27T20:09:18.721Z,49.38
2023-04-27T20:11:46.340Z,55.85
2023-04-27T20:14:14.147Z,63.65
2023-04-27T20:16:41.911Z,50.70
2023-04-27T20:19:10.842Z,53.78
2023-04-27T20:21:38.790Z,53.78
2023-04-27T20:24:07.364Z,52.55
2023-04-27T20:26:34.731Z,45.63
2023-04-27T20:29:02.234Z,47.65
2023-04-27T20:31:29.866Z,42.55
2023-04-27T20:33:57.217Z,44.72
2023-04-27T20:36:24.860Z,51.53
2023-04-27T20:38:52.416Z,50.80
2023-04-27T20:41:21.447Z,46.83
2023-04-27T20:43:48.784Z,49.75
2023-04-27T20:46:16.545Z,43.10
2023-04-27T20:48:45.022Z,53.20
2023-04-27T20:51:12.932Z,48.10
2023-04-27T20:53:40.689Z,50.53
2023-04-27T20:56:08.978Z,52.78
2023-04-27T20:58:36.276Z,45.13
2023-04-27T21:01:04.091Z,41.88
2023-04-27T21:03:31.638Z,40.13
2023-04-27T21:05:59.246Z,41.72
2023-04-27T21:08:28.093Z,33.60
2023-04-27T21:10:57.077Z,35.45
2023-04-27T21:13:25.558Z,33.30
2023-04-27T21:15:54.405Z,34.35
2023-04-27T21:18:29.792Z,38.05
2023-04-27T21:20:58.186Z,40.17
2023-04-27T21:23:25.730Z,36.13
2023-04-27T21:25:53.284Z,29.73
2023-04-27T21:28:21.550Z,28.33
2023-04-27T21:30:50.329Z,28.30
2023-04-27T21:33:18.113Z,30.10
2023-04-27T21:35:45.749Z,32.53
2023-04-27T21:38:13.180Z,32.38
2023-04-27T21:40:40.734Z,25.42
2023-04-27T21:43:08.141Z,29.90
2023-04-27T21:45:36.068Z,21.58
2023-04-27T21:48:03.674Z,21.58
2023-04-27T21:50:31.198Z,19.45
2023-04-27T21:52:58.658Z,22.20
2023-04-27T21:55:26.109Z,14.52
2023-04-27T21:57:53.695Z,18.63
2023-04-27T22:00:21.137Z,17.10
2023-04-27T22:02:51.007Z,9.85
2023-04-27T22:05:20.977Z,12.75
2023-04-27T22:07:48.413Z,18.40
2023-04-27T22:10:15.905Z,12.75
2023-04-27T22:12:43.553Z,10.23
2023-04-27T22:15:11.260Z,13.40
2023-04-27T22:17:39.827Z,13.32
2023-04-27T22:20:11.295Z,12.70
2023-04-27T22:22:38.754Z,14.88
2023-04-27T22:25:07.542Z,11.57
2023-04-27T22:27:42.117Z,10.40
2023-04-27T22:30:12.412Z,16.73
2023-04-27T22:32:39.861Z,13.98
2023-04-27T22:35:24.711Z,11.25
2023-04-27T22:37:55.911Z,10.10
2023-04-27T22:40:23.543Z,12.50
2023-04-27T22:42:52.360Z,14.30
2023-04-27T22:45:19.764Z,11.52
2023-04-27T22:47:47.296Z,15.05
2023-04-27T22:50:15.330Z,9.32
2023-04-27T22:52:43.166Z,9.48
2023-04-27T22:55:11.946Z,12.68
2023-04-27T22:57:40.278Z,10.65
2023-04-27T23:00:11.965Z,9.10
2023-04-27T23:02:41.544Z,16.45
2023-04-27T23:05:10.889Z,10.18
2023-04-27T23:07:41.011Z,8.43
2023-04-27T23:10:09.038Z,11.77
2023-04-27T23:12:37.816Z,10.80
2023-04-27T23:15:05.668Z,11.65
2023-04-27T23:17:33.328Z,12.25
2023-04-27T23:20:02.197Z,13.40
2023-04-27T23:22:30.720Z,10.23
2023-04-27T23:24:58.000Z,9.85
2023-04-27T23:27:25.318Z,10.07
2023-04-27T23:29:52.792Z,10.15
2023-04-27T23:32:20.832Z,11.90
2023-04-27T23:34:48.298Z,10.77
2023-04-27T23:37:17.209Z,13.00
2023-04-27T23:39:44.660Z,8.98
2023-04-27T23:42:12.070Z,11.85
2023-04-27T23:44:40.966Z,9.15
2023-04-27T23:47:08.705Z,8.80
2023-04-27T23:49:36.149Z,9.73
2023-04-27T23:52:03.660Z,8.90
2023-04-27T23:54:32.461Z,8.38
2023-04-27T23:56:59.927Z,8.13
2023-04-27T23:59:27.349Z,9.43
